• Join FlightAware (Why Join?)
  • Login
  • US Flag 
05:04PM EDT


 

Airport Tracker/Info


-or-


 

Live Flight TrackerFlight Track Log ✈ SKW5460 ✈ 07-May-2013 ✈ KRDD - KSFO

Flight Track Log - Related Links

Times and Time Zones

All times are in EDT time to prevent confusion due to time zone crossing. See the SKW5460 flight status page for this flight to view local times or setup timezone preferences in your user account.

Time Position Orientation Groundspeed Altitude Reporting Facility
EDT Latitude Longitude Course Direction KTS MPH feet Rate Location/Type
09:30AM 40.4942 -122.2942 15° North 150 173 1,400  Level Oakland Center
09:31AM 40.4731 -122.2508 123° Southeast 155 178 3,200 1,680 Climbing Oakland Center
09:32AM 40.4506 -122.1958 118° Southeast 164 189 4,800 1,620 Climbing Oakland Center
09:33AM 40.0940 -122.3847 190° South  Level FlightAware Approximate
09:33AM 40.3983 -122.1936 178° South 185 213 6,600  Level Oakland Center
09:34AM 40.0229 -122.3844 21° North  Level Estimated
09:34AM 40.3494 -122.2092 194° South 183 211 8,400  Level Oakland Center
09:35AM 40.0786 -122.3267 38° Northeast  Level FlightAware Approximate
09:35AM 40.2961 -122.2264 194° South 189 217 10,000  Level Oakland Center
09:36AM 40.0076 -122.3282 15° North  Level Estimated
09:36AM 40.2392 -122.2442 193° South 199 229 11,700  Level Oakland Center
09:37AM 40.1800 -122.2614 193° South 212 244 13,500 1,440 Climbing Oakland Center
09:38AM 40.1222 -122.2781 192° South 214 246 14,700 1,320 Climbing Oakland Center
09:39AM 40.0533 -122.3003 194° South 231 266 16,200 1,320 Climbing Oakland Center
09:40AM 39.9908 -122.3181 192° South 231 266 17,400 1,140 Climbing Oakland Center
09:41AM 39.9267 -122.3367 193° South 235 270 18,500 1,140 Climbing Oakland Center
09:42AM 39.8622 -122.3561 193° South 238 274 19,800 1,080 Climbing Oakland Center
09:43AM 39.7978 -122.3753 193° South 237 273 20,800 540 Climbing Oakland Center
09:44AM 39.7278 -122.3967 193° South 257 296 21,000 60 Climbing Oakland Center
09:46AM 39.6500 -122.4206 193° South 284 327 21,000  Level Oakland Center
09:47AM 39.5733 -122.4433 193° South 284 327 21,000  Level Oakland Center
09:48AM 39.4822 -122.4706 193° South 280 322 21,000  Level Oakland Center
09:49AM 39.4133 -122.4897 192° South 278 320 21,000  Level Oakland Center
09:50AM 39.3383 -122.5103 192° South 277 319 21,000  Level Oakland Center
09:51AM 39.2569 -122.5328 192° South 277 319 21,000  Level Oakland Center
09:52AM 39.1892 -122.5522 193° South 275 316 21,000  Level Oakland Center
09:53AM 39.1142 -122.5733 192° South 276 318 21,000  Level Oakland Center
09:54AM 39.0400 -122.5947 193° South 274 315 21,000  Level Oakland Center
09:55AM 38.9661 -122.6167 193° South 273 314 21,000  Level Oakland Center
09:56AM 38.8828 -122.6411 193° South 275 316 21,000  Level Oakland Center
09:57AM 38.8086 -122.6611 192° South 274 315 21,000  Level Oakland Center
09:58AM 38.7339 -122.6833 193° South 276 318 21,000  Level Oakland Center
09:59AM 38.6592 -122.7053 193° South 277 319 21,000  Level Oakland Center
10:00AM 38.5828 -122.7086 182° South 279 321 21,000  Level Oakland Center
10:01AM 38.5067 -122.7000 175° South 275 316 21,000 -120 Level Oakland Center
10:02AM 38.4300 -122.6967 178° South 277 319 20,800 -840 Descending Oakland Center
10:03AM 38.3389 -122.6936 178° South 274 315 19,400 -1,440 Descending Oakland Center
10:04AM 38.2639 -122.6881 177° South 271 312 17,900 -1,440 Descending Oakland Center
10:05AM 38.1875 -122.6847 178° South 277 319 16,500 -1,380 Descending Oakland Center
10:06AM 38.1128 -122.6814 178° South 271 312 15,100 -1,380 Descending Oakland Center
10:07AM 38.0369 -122.6783 178° South 273 314 13,800 -1,380 Descending Oakland Center
10:08AM 37.9633 -122.6756 178° South 269 310 12,300 -1,380 Descending Oakland Center
10:09AM 37.8939 -122.6647 173° South 276 318 11,000 -780 Descending Oakland Center
10:10AM 37.8500 -122.6167 139° Southeast 248 285 11,000  Level Northern Cal TRACON
10:11AM 37.8000 -122.5500 133° Southeast 245 282 11,000  Level Northern Cal TRACON
10:12AM 37.7333 -122.5000 149° Southeast 242 278 11,000  Level Northern Cal TRACON
10:13AM 37.6833 -122.4500 142° Southeast 241 277 11,000  Level Northern Cal TRACON
10:14AM 37.6500 -122.4000 130° Southeast 239 275 11,000 -420 Level Northern Cal TRACON
10:15AM 37.5833 -122.3500 149° Southeast 244 281 10,300 -1,020 Descending Northern Cal TRACON
10:15AM 37.5689 -122.3386 148° Southeast 241 277 9,600 -1,920 Descending Oakland Center
10:16AM 37.5067 -122.3006 154° Southeast 247 284 7,500 -1,560 Descending Oakland Center
10:17AM 37.4764 -122.2397 122° Southeast 219 252 6,500 -1,380 Descending Oakland Center
10:18AM 37.4508 -122.1644 113° Southeast 202 232 4,800 -1,260 Descending Oakland Center
10:19AM 37.4569 -122.1089 82° East 203 234 4,000 -660 Descending Oakland Center
10:19AM 37.4667 -122.1000 36° Northeast 199 229 4,000  Level Northern Cal TRACON
10:20AM 37.5167 -122.1167 345° North 192 221 4,000 60 Level Northern Cal TRACON
10:21AM 37.5367 -122.1611 300° West 187 215 4,200 240 Climbing Oakland Center